Time;durP1;ratioP1;P1;durP2;ratioP2;P2;SDS_P1;SDS_P2;PMS_P1;PMS_P2;Temp;Humidity;BMP_temperature;BMP_pressure;BME280_temperature;BME280_humidity;BME280_pressure;Samples;Min_cycle;Max_cycle;Signal;HPM_P1;HPM_P2
2022/12/08 00:00:48;;;;;;;2.90;2.50;;;;;;;-0.92;100.00;98731.65;436075;1277;142618;-60
2022/12/08 00:11:03;;;;;;;4.10;2.40;;;;;;;-1.14;99.46;98742.45;423558;1278;145346;-60
2022/12/08 00:21:09;;;;;;;1.40;1.30;;;;;;;-1.51;98.81;98752.77;434053;1279;142600;-60
2022/12/08 00:31:16;;;;;;;2.50;1.90;;;;;;;-1.69;98.62;98758.23;427184;1278;145335;-60
2022/12/08 00:51:49;;;;;;;5.70;4.00;;;;;;;-2.14;99.32;98772.29;429091;1279;189476;-60
2022/12/08 01:01:56;;;;;;;5.40;4.90;;;;;;;-2.15;99.98;98779.34;420100;1279;142119;-60
2022/12/08 01:12:09;;;;;;;7.10;5.80;;;;;;;-2.12;99.97;98789.22;419706;1278;142955;-60
2022/12/08 01:22:15;;;;;;;9.50;8.20;;;;;;;-2.31;100.00;98796.87;422311;1279;198372;-59
2022/12/08 01:32:21;;;;;;;14.20;11.00;;;;;;;-2.25;100.00;98798.63;420251;1281;141633;-59
2022/12/08 01:42:31;;;;;;;17.10;10.70;;;;;;;-2.35;100.00;98805.87;421774;1275;202488;-60
2022/12/08 01:52:41;;;;;;;10.90;8.50;;;;;;;-2.51;100.00;98806.43;425142;1287;143568;-63
2022/12/08 02:03:13;;;;;;;9.60;8.00;;;;;;;-2.58;100.00;98812.59;423058;1279;142561;-59
2022/12/08 02:13:28;;;;;;;14.10;9.40;;;;;;;-2.60;100.00;98816.73;420551;1275;144552;-59
2022/12/08 02:24:07;;;;;;;12.10;8.80;;;;;;;-2.60;100.00;98816.91;423034;1278;144828;-61
2022/12/08 02:34:21;;;;;;;11.90;8.70;;;;;;;-2.59;100.00;98817.24;423847;1278;143209;-60
2022/12/08 02:44:32;;;;;;;10.50;8.40;;;;;;;-2.57;100.00;98814.96;424584;1278;187010;-59
2022/12/08 02:54:41;;;;;;;14.90;8.50;;;;;;;-2.59;100.00;98824.94;421408;1280;144778;-59
2022/12/08 03:05:01;;;;;;;14.20;9.50;;;;;;;-2.63;100.00;98828.96;425014;1273;143283;-60
2022/12/08 03:15:12;;;;;;;14.90;9.90;;;;;;;-2.62;100.00;98833.73;422208;1280;145398;-59
2022/12/08 03:25:22;;;;;;;11.30;8.40;;;;;;;-2.65;100.00;98832.29;422542;1279;143395;-59
2022/12/08 03:35:33;;;;;;;12.40;8.50;;;;;;;-2.68;100.00;98836.61;424719;1272;144276;-59
2022/12/08 03:45:38;;;;;;;13.20;10.10;;;;;;;-2.75;100.00;98828.89;419163;1279;144164;-61
2022/12/08 03:55:44;;;;;;;13.30;9.50;;;;;;;-2.72;100.00;98839.64;424089;1279;141906;-58
2022/12/08 04:06:10;;;;;;;11.50;8.50;;;;;;;-2.75;100.00;98837.30;424863;1278;146816;-60
2022/12/08 04:16:19;;;;;;;13.00;8.70;;;;;;;-2.76;100.00;98846.04;424623;1274;142529;-59
2022/12/08 04:26:35;;;;;;;14.10;8.60;;;;;;;-2.70;100.00;98844.20;421552;1279;143579;-62
2022/12/08 04:36:40;;;;;;;15.50;10.30;;;;;;;-2.71;100.00;98848.17;424740;1279;142281;-59
2022/12/08 04:46:48;;;;;;;15.20;10.80;;;;;;;-2.84;100.00;98855.82;427785;1272;146278;-59
2022/12/08 04:56:56;;;;;;;14.20;9.90;;;;;;;-2.99;100.00;98851.84;423469;1282;143752;-59
2022/12/08 05:07:19;;;;;;;11.40;9.10;;;;;;;-3.10;100.00;98857.36;423068;1272;199377;-60
2022/12/08 05:17:29;;;;;;;15.90;8.90;;;;;;;-3.12;100.00;98847.64;422518;1272;143971;-61
2022/12/08 05:27:35;;;;;;;17.00;11.90;;;;;;;-3.04;100.00;98845.61;421670;1275;143040;-59
2022/12/08 05:37:44;;;;;;;20.70;13.30;;;;;;;-3.13;100.00;98843.72;421552;1272;143807;-59
2022/12/08 05:47:52;;;;;;;16.90;12.20;;;;;;;-3.17;100.00;98852.20;420230;1279;143130;-59
2022/12/08 05:57:58;;;;;;;19.30;14.90;;;;;;;-3.01;100.00;98855.98;423869;1275;214849;-60
2022/12/08 06:08:12;;;;;;;19.30;14.10;;;;;;;-2.85;100.00;98872.29;422249;1272;201662;-59
2022/12/08 06:18:38;;;;;;;37.70;22.30;;;;;;;-2.61;100.00;98870.05;424268;1279;144954;-60
2022/12/08 06:28:44;;;;;;;29.10;19.20;;;;;;;-2.60;100.00;98872.60;420479;1279;143207;-60
2022/12/08 06:38:50;;;;;;;24.60;17.30;;;;;;;-2.40;100.00;98878.52;419918;1272;144131;-60
2022/12/08 06:48:56;;;;;;;26.70;17.70;;;;;;;-2.26;100.00;98882.30;428983;1275;212268;-60
2022/12/08 06:59:06;;;;;;;28.90;20.10;;;;;;;-2.40;100.00;98891.52;424814;1280;143520;-60
2022/12/08 07:09:14;;;;;;;32.20;23.30;;;;;;;-2.50;100.00;98890.55;418891;1278;145946;-59
2022/12/08 07:19:25;;;;;;;43.50;28.80;;;;;;;-2.43;100.00;98890.58;418938;1281;142983;-61
2022/12/08 07:29:31;;;;;;;49.40;31.50;;;;;;;-2.09;100.00;98895.98;419343;1271;142750;-59
2022/12/08 07:39:58;;;;;;;43.30;31.50;;;;;;;-1.80;100.00;98888.61;418587;1272;212655;-59
2022/12/08 07:50:23;;;;;;;33.10;25.50;;;;;;;-1.49;100.00;98889.03;428870;1272;142120;-60
2022/12/08 08:00:42;;;;;;;36.40;24.70;;;;;;;-1.17;100.00;98887.32;426854;1279;142802;-59
2022/12/08 08:10:47;;;;;;;;;;;;;;;-0.86;100.00;98887.15;422428;1272;143523;-59
2022/12/08 08:20:53;;;;;;;24.20;16.60;;;;;;;-0.59;100.00;98891.21;419504;1275;130391;-60
2022/12/08 08:30:59;;;;;;;22.60;17.00;;;;;;;-0.38;100.00;98895.23;434742;1272;142785;-61
2022/12/08 08:41:10;;;;;;;29.00;19.10;;;;;;;-0.03;100.00;98898.29;432317;1274;142836;-60
2022/12/08 08:51:16;;;;;;;31.60;19.10;;;;;;;0.75;100.00;98899.66;436017;1281;143053;-59
2022/12/08 09:01:25;;;;;;;23.00;16.90;;;;;;;2.72;100.00;98890.54;436737;1281;142542;-60
2022/12/08 09:11:31;;;;;;;17.90;13.80;;;;;;;4.83;100.00;98881.52;430777;1275;142072;-59
2022/12/08 09:21:52;;;;;;;16.30;13.40;;;;;;;7.19;97.95;98877.78;436158;1280;213552;-59
2022/12/08 09:31:58;;;;;;;15.30;12.10;;;;;;;7.91;94.07;98863.05;436818;1280;143487;-59
2022/12/08 09:42:06;;;;;;;16.50;12.50;;;;;;;6.28;91.99;98857.88;435949;1284;142652;-60
2022/12/08 09:52:20;;;;;;;16.50;13.40;;;;;;;4.95;92.14;98851.45;435227;1281;142089;-59
2022/12/08 10:02:28;;;;;;;18.00;13.40;;;;;;;4.06;92.30;98841.55;434919;1281;142693;-59
2022/12/08 10:12:41;;;;;;;19.70;15.60;;;;;;;3.21;92.36;98840.88;430418;1279;145673;-60
2022/12/08 10:22:50;;;;;;;19.30;15.20;;;;;;;2.76;92.99;98827.30;436843;1281;144330;-60
2022/12/08 10:32:56;;;;;;;14.10;12.60;;;;;;;2.55;93.43;98818.36;436220;1280;152328;-59
2022/12/08 10:43:04;;;;;;;16.20;12.70;;;;;;;2.69;93.71;98806.37;436926;1281;143057;-59
2022/12/08 10:53:15;;;;;;;17.00;14.10;;;;;;;2.87;93.68;98804.39;436949;1281;143108;-60
2022/12/08 11:03:27;;;;;;;18.20;13.20;;;;;;;3.03;93.58;98803.30;436148;1274;142693;-60
2022/12/08 11:13:40;;;;;;;15.20;12.90;;;;;;;3.21;93.41;98793.84;436711;1281;142544;-60
2022/12/08 11:23:49;;;;;;;14.20;12.20;;;;;;;3.25;93.25;98785.01;426658;1275;142731;-61
2022/12/08 11:33:55;;;;;;;14.20;11.00;;;;;;;3.18;93.14;98785.15;425995;1275;144279;-59
2022/12/08 11:44:09;;;;;;;14.30;11.00;;;;;;;3.12;93.06;98782.30;436602;1280;142582;-59
2022/12/08 11:54:22;;;;;;;12.80;9.40;;;;;;;3.09;93.16;98771.38;435175;1280;143521;-59
2022/12/08 12:04:32;;;;;;;11.90;9.50;;;;;;;3.10;93.12;98763.05;432164;1272;143297;-59
2022/12/08 12:14:55;;;;;;;12.70;9.70;;;;;;;3.22;93.10;98757.13;427965;1272;141651;-59
2022/12/08 12:25:03;;;;;;;9.80;7.90;;;;;;;3.26;92.53;98753.51;427586;1280;143425;-60
2022/12/08 12:35:19;;;;;;;15.50;10.40;;;;;;;3.18;92.11;98754.39;423889;1274;142219;-60
2022/12/08 12:45:33;;;;;;;15.70;11.00;;;;;;;3.12;92.27;98741.48;436149;1285;144335;-61
2022/12/08 12:55:54;;;;;;;16.00;12.60;;;;;;;3.16;92.15;98732.48;436843;1282;187971;-60
2022/12/08 13:06:01;;;;;;;13.00;8.80;;;;;;;3.12;91.55;98720.75;436118;1281;144064;-60
2022/12/08 13:16:19;;;;;;;16.60;11.00;;;;;;;2.96;91.18;98720.64;436897;1285;142621;-61
2022/12/08 13:26:26;;;;;;;14.80;10.60;;;;;;;2.88;91.61;98723.08;435727;1282;143751;-60
2022/12/08 13:36:37;;;;;;;13.60;11.00;;;;;;;2.78;91.74;98720.41;436148;1288;144395;-60
2022/12/08 13:46:49;;;;;;;15.70;11.40;;;;;;;2.67;91.70;98710.20;437019;1281;142689;-61
2022/12/08 13:57:27;;;;;;;12.00;10.70;;;;;;;2.48;91.68;98716.59;436212;1280;144080;-61
2022/12/08 14:07:34;;;;;;;14.90;11.10;;;;;;;2.29;92.01;98718.94;437018;1287;142727;-60
2022/12/08 14:17:40;;;;;;;16.90;14.10;;;;;;;2.15;92.13;98723.89;436957;1274;143773;-60
2022/12/08 14:27:46;;;;;;;20.00;15.40;;;;;;;2.09;92.52;98726.41;433298;1278;143907;-60
2022/12/08 14:37:55;;;;;;;18.50;14.70;;;;;;;1.97;92.82;98725.68;436977;1287;145110;-60
2022/12/08 14:48:19;;;;;;;24.60;19.90;;;;;;;1.79;92.72;98724.54;436234;1275;144082;-60
2022/12/08 14:58:30;;;;;;;35.20;23.60;;;;;;;1.55;92.97;98725.17;436986;1282;142908;-60
2022/12/08 15:08:50;;;;;;;24.90;19.80;;;;;;;1.33;93.13;98733.98;436915;1286;142731;-60
2022/12/08 15:19:17;;;;;;;29.10;20.60;;;;;;;1.11;93.36;98734.16;426517;1278;213832;-59
2022/12/08 15:29:25;;;;;;;36.60;23.80;;;;;;;0.92;93.73;98735.70;425745;1281;142607;-60
2022/12/08 15:39:36;;;;;;;36.40;23.60;;;;;;;0.79;94.18;98741.57;436121;1280;199654;-59
2022/12/08 15:49:41;;;;;;;33.60;23.40;;;;;;;0.82;94.68;98744.02;436799;1274;142493;-59
2022/12/08 15:59:47;;;;;;;25.80;18.40;;;;;;;0.95;94.67;98739.39;436722;1279;146248;-64
2022/12/08 16:10:17;;;;;;;24.70;18.50;;;;;;;1.02;94.68;98735.52;429085;1279;211724;-59
2022/12/08 16:20:43;;;;;;;25.10;18.80;;;;;;;0.96;94.35;98727.84;436745;1282;143428;-58
2022/12/08 16:31:12;;;;;;;23.80;18.30;;;;;;;0.87;94.52;98728.17;430684;1282;211706;-60
2022/12/08 16:51:59;;;;;;;23.40;15.10;;;;;;;1.01;94.02;98732.98;434953;1286;197742;-60
2022/12/08 17:02:05;;;;;;;20.20;14.20;;;;;;;1.02;93.81;98733.27;436772;1279;143476;-60
2022/12/08 17:12:11;;;;;;;20.60;13.20;;;;;;;1.03;93.50;98733.08;436098;1281;142069;-60
2022/12/08 17:22:38;;;;;;;16.90;12.70;;;;;;;0.79;93.02;98735.52;436771;1281;143004;-60
2022/12/08 17:33:04;;;;;;;19.40;14.70;;;;;;;0.40;92.90;98747.26;436034;1279;145210;-60
2022/12/08 17:43:30;;;;;;;30.00;19.20;;;;;;;0.02;93.33;98751.18;429072;1279;142590;-60
2022/12/08 17:53:36;;;;;;;26.20;19.80;;;;;;;-0.26;93.65;98757.61;436836;1281;142673;-61
2022/12/08 18:03:42;;;;;;;28.20;20.80;;;;;;;-0.45;94.01;98757.53;436061;1275;200570;-60
2022/12/08 18:13:48;;;;;;;30.10;22.00;;;;;;;-0.64;94.35;98745.05;436728;1287;141666;-59
2022/12/08 18:24:15;;;;;;;;;;;;;;;-0.87;94.65;98742.34;435982;1278;142731;-61
2022/12/08 18:34:21;;;;;;;29.50;21.30;;;;;;;-1.06;94.92;98737.39;436927;1280;129696;-61
2022/12/08 18:44:27;;;;;;;18.50;13.20;;;;;;;-1.26;95.56;98730.42;427479;1278;142815;-60
2022/12/08 18:54:32;;;;;;;27.80;20.10;;;;;;;-1.39;96.13;98730.80;435521;1285;145338;-60
2022/12/08 19:04:58;;;;;;;27.60;18.00;;;;;;;-1.46;96.62;98731.18;436011;1282;145667;-60
2022/12/08 19:15:04;;;;;;;30.20;21.40;;;;;;;-1.54;97.02;98733.45;434695;1280;142401;-61
2022/12/08 19:25:11;;;;;;;34.60;22.70;;;;;;;-1.59;97.53;98729.66;436896;1285;142750;-62
2022/12/08 19:35:25;;;;;;;40.40;27.20;;;;;;;-1.66;97.97;98723.84;436773;1285;143330;-61
2022/12/08 19:45:31;;;;;;;31.40;20.60;;;;;;;-1.74;98.22;98725.08;431768;1285;142157;-61
2022/12/08 19:55:37;;;;;;;31.20;24.30;;;;;;;-1.83;98.59;98720.88;436756;1284;142210;-61
2022/12/08 20:05:44;;;;;;;26.00;21.10;;;;;;;-1.97;98.61;98721.92;435881;1285;144360;-62
2022/12/08 20:15:50;;;;;;;33.90;24.00;;;;;;;-2.08;98.73;98729.59;436114;1287;143997;-60
2022/12/08 20:25:55;;;;;;;45.30;26.80;;;;;;;-2.20;99.05;98735.21;432487;1278;142812;-60
2022/12/08 20:36:03;;;;;;;59.30;34.80;;;;;;;-2.33;99.42;98736.39;436035;1283;144064;-59
2022/12/08 20:46:29;;;;;;;52.00;31.50;;;;;;;-2.39;99.52;98737.73;436762;1280;143603;-62
2022/12/08 20:56:35;;;;;;;56.20;33.20;;;;;;;-2.54;99.65;98742.75;436810;1279;142388;-61
2022/12/08 21:06:41;;;;;;;51.80;35.70;;;;;;;-2.74;99.71;98734.81;435998;1277;143120;-63
2022/12/08 21:16:48;;;;;;;47.80;31.90;;;;;;;-2.79;99.97;98737.50;436826;1275;144222;-62
2022/12/08 21:26:54;;;;;;;47.30;31.40;;;;;;;-2.93;99.96;98740.38;426926;1279;144573;-62
2022/12/08 21:37:00;;;;;;;48.60;32.80;;;;;;;-3.08;100.00;98742.41;427200;1280;143622;-61
2022/12/08 21:47:06;;;;;;;49.20;34.30;;;;;;;-3.19;100.00;98740.61;429482;1275;142206;-60
2022/12/08 21:57:15;;;;;;;61.40;40.90;;;;;;;-3.19;100.00;98735.13;424833;1278;143490;-61
2022/12/08 22:07:21;;;;;;;57.00;38.10;;;;;;;-3.19;100.00;98727.92;436851;1282;145883;-61
2022/12/08 22:17:27;;;;;;;54.80;38.10;;;;;;;-2.98;100.00;98721.48;436797;1282;144176;-61
2022/12/08 22:27:34;;;;;;;57.50;42.50;;;;;;;-2.77;100.00;98712.45;434354;1288;145229;-61
2022/12/08 22:38:01;;;;;;;48.90;33.90;;;;;;;-2.77;100.00;98717.59;420234;1278;143389;-61
2022/12/08 22:48:07;;;;;;;42.10;32.80;;;;;;;-2.82;100.00;98722.14;433705;1280;143007;-61
2022/12/08 22:58:12;;;;;;;;;;;;;;;-2.98;100.00;98728.16;435084;1287;146803;-60
2022/12/08 23:08:18;;;;;;;42.20;30.40;;;;;;;-3.11;100.00;98739.06;434094;1281;129078;-61
2022/12/08 23:18:23;;;;;;;47.20;32.30;;;;;;;-3.09;100.00;98731.65;435091;1264;143258;-60
2022/12/08 23:28:29;;;;;;;43.90;30.50;;;;;;;-3.09;100.00;98723.79;434017;1274;142696;-61
2022/12/08 23:38:35;;;;;;;39.70;28.20;;;;;;;-3.11;100.00;98721.95;434689;1281;185488;-60
2022/12/08 23:48:41;;;;;;;35.70;26.30;;;;;;;-3.18;100.00;98721.76;436007;1281;143779;-61
2022/12/08 23:58:47;;;;;;;30.10;24.30;;;;;;;-3.17;100.00;98716.77;431118;1282;143310;-60
